Links Sitemap Venhuizerweer voor mobiel

AMSTERDAM SCHIPHOL:
Amsterdam Airport Schiphol, Netherlands (EHAM) 52-18N 004-46E -2M
May 19, 2019 - 08:55 PM EDT / 2019.05.20 0055 UTC
Wind: from the N (360 degrees) at 5 MPH (4 KT) (direction variable):0
Visibility: 2 mile(s):0
Sky conditions: mostly cloudy
Weather: mist
Temperature: 53 F (12 C)
Dew Point: 51 F (11 C)
Relative Humidity: 93%
Pressure (altimeter): 29.74 in. Hg (1007 hPa)
ob: EHAM 200055Z 36004KT 320V040 4000 BR SCT002 BKN003 12/11 Q1007 NOSIG
cycle: 1
DEELEN:
Deelen, Netherlands (EHDL) 52-04N 005-53E 52M
May 19, 2019 - 08:55 PM EDT / 2019.05.20 0055 UTC
Wind: from the NW (320 degrees) at 9 MPH (8 KT) (direction variable):0
Visibility: 1 mile(s):0
Sky conditions: overcast
Weather: mist
Temperature: 55 F (13 C)
Dew Point: 53 F (12 C)
Relative Humidity: 93%
Pressure (altimeter): 29.71 in. Hg (1006 hPa)
ob: EHDL 200055Z AUTO 32008KT 280V010 2700 BR BKN002 OVC003 13/12 Q1006 AMB
cycle: 1
DE KOOY:
De Kooy, Netherlands (EHKD) 52-55N 004-47E 14M
May 19, 2019 - 08:55 PM EDT / 2019.05.20 0055 UTC
Wind: from the NNE (020 degrees) at 9 MPH (8 KT) (direction variable):0
Visibility: less than 1 mile:0
Sky conditions: overcast
Weather: fog
Temperature: 51 F (11 C)
Dew Point: 51 F (11 C)
Relative Humidity: 100%
Pressure (altimeter): 29.74 in. Hg (1007 hPa)
ob: EHKD 200055Z AUTO 02008KT 330V050 0800 FG OVC001 11/11 Q1007 RED
cycle: 1
EELDE:
Groningen Airport Eelde, Netherlands (EHGG) 53-08N 006-35E 4M
May 19, 2019 - 08:55 PM EDT / 2019.05.20 0055 UTC
Wind: from the N (350 degrees) at 5 MPH (4 KT):0
Visibility: 1 mile(s):0
Weather: mist
Temperature: 53 F (12 C)
Dew Point: 53 F (12 C)
Relative Humidity: 100%
Pressure (altimeter): 29.68 in. Hg (1005 hPa)
ob: EHGG 200055Z AUTO 35004KT 2400 BR NSC 12/12 Q1005
cycle: 1
EINDHOVEN:
Eindhoven, Netherlands (EHEH) 51-27N 005-25E 28M
May 19, 2019 - 08:55 PM EDT / 2019.05.20 0055 UTC
Wind: from the NNW (330 degrees) at 7 MPH (6 KT) (direction variable):0
Visibility: 2 mile(s):0
Sky conditions: overcast
Weather: mist
Temperature: 55 F (13 C)
Dew Point: 53 F (12 C)
Relative Humidity: 93%
Pressure (altimeter): 29.74 in. Hg (1007 hPa)
ob: EHEH 200055Z AUTO 33006KT 250V350 4400 BR SCT006 BKN008 OVC009 13/12 Q1007 YLO
cycle: 1
GILZE-RIJEN:
Gilze-Rijen, Netherlands (EHGR) 51-34N 004-56E 24M
May 19, 2019 - 08:55 PM EDT / 2019.05.20 0055 UTC
Wind: from the N (350 degrees) at 7 MPH (6 KT) (direction variable):0
Visibility: 2 mile(s):0
Sky conditions: mostly cloudy
Weather: mist
Temperature: 53 F (12 C)
Dew Point: 53 F (12 C)
Relative Humidity: 100%
Pressure (altimeter): 29.74 in. Hg (1007 hPa)
ob: EHGR 200055Z AUTO 35006KT 300V050 3300 BR FEW005 SCT006 BKN007 12/12 Q1007 YLO
cycle: 1
LEEUWARDEN:
Leeuwarden, Netherlands (EHLW) 53-13N 005-46E 11M
May 19, 2019 - 08:55 PM EDT / 2019.05.20 0055 UTC
Wind: from the N (010 degrees) at 5 MPH (4 KT):0
Visibility: 2 mile(s):0
Sky conditions: overcast
Weather: mist
Temperature: 53 F (12 C)
Dew Point: 53 F (12 C)
Relative Humidity: 100%
Pressure (altimeter): 29.71 in. Hg (1006 hPa)
ob: EHLW 200055Z AUTO 01004KT 4500 BR SCT078 OVC084 12/12 Q1006 GRN
cycle: 1
MAASTRICHT:
Maastricht Airport Zuid Limburg, Netherlands (EHBK) 50-55N 005-47E 116M
May 19, 2019 - 08:55 PM EDT / 2019.05.20 0055 UTC
Wind: from the NW (310 degrees) at 6 MPH (5 KT) (direction variable):0
Visibility: 1 mile(s):0
Sky conditions: overcast
Weather: mist
Temperature: 53 F (12 C)
Dew Point: 53 F (12 C)
Relative Humidity: 100%
Pressure (altimeter): 29.71 in. Hg (1006 hPa)
ob: EHBK 200055Z AUTO 31005KT 260V350 1800 BR BKN001 OVC002 12/12 Q1006
cycle: 1
ROTTERDAM ZESTIENHOVEN:
Rotterdam Airport Zestienhoven, Netherlands (EHRD) 51-57N 004-27E -4M
May 19, 2019 - 08:55 PM EDT / 2019.05.20 0055 UTC
Wind: from the N (360 degrees) at 6 MPH (5 KT) (direction variable):0
Visibility: 3 mile(s):0
Sky conditions: overcast
Temperature: 53 F (12 C)
Dew Point: 51 F (11 C)
Relative Humidity: 93%
Pressure (altimeter): 29.74 in. Hg (1007 hPa)
ob: EHRD 200055Z AUTO 36005KT 300V040 6000 BKN005 OVC006 12/11 Q1007 NOSIG
cycle: 1
SOESTERBERG:
Soesterberg, Netherlands (EHSB) 52-08N 005-17E 25M
Nov 20, 2008 - 04:25 AM EST / 2008.11.20 0925 UTC
Wind: from the W (280 degrees) at 16 MPH (14 KT):0
Visibility: greater than 7 mile(s):0
Temperature: 51 F (11 C)
Dew Point: 48 F (9 C)
Relative Humidity: 87%
Pressure (altimeter): 29.83 in. Hg (1010 hPa)
ob: EHSB 200925Z AUTO 28014KT 9999 // 11/09 Q1010
cycle: 9
TWENTE:
Twenthe, Netherlands (EHTW) 52-16N 006-54E 57M
Apr 07, 2008 - 08:25 AM EDT / 2008.04.07 1225 UTC
Wind: from the N (010 degrees) at 7 MPH (6 KT):0
Sky conditions: mostly cloudy
Temperature: 46 F (8 C)
Dew Point: 24 F (-4 C)
Relative Humidity: 42%
Pressure (altimeter): 29.59 in. Hg (1002 hPa)
ob: EHTW 071225Z AUTO 01006KT //// // BKN200/// 08/M04 Q1002 RE//
cycle: 12
VALKENBURG:
Valkenburg, Netherlands (EHVB) 52-11N 004-25E 2M
Apr 01, 2010 - 03:55 AM EDT / 2010.04.01 0755 UTC
Wind: from the WSW (250 degrees) at 20 MPH (17 KT):0
Sky conditions: mostly cloudy
Temperature: 41 F (5 C)
Dew Point: 33 F (1 C)
Relative Humidity: 75%
Pressure (altimeter): 29.62 in. Hg (1003 hPa)
ob: EHVB 010755Z AUTO 25017KT 9999NDV FEW021/// BKN037/// 05/01 Q1003 BLU
cycle: 8
VLIELAND:
Vlieland, Netherlands (EHVL) 53-15N 004-55E 12M
May 19, 2019 - 08:55 PM EDT / 2019.05.20 0055 UTC
Wind: from the N (010 degrees) at 21 MPH (18 KT):0
Visibility: less than 1 mile:0
Sky conditions: obscured
Weather: fog
Temperature: 51 F (11 C)
Dew Point: 51 F (11 C)
Relative Humidity: 100%
Pressure (altimeter): 29.71 in. Hg (1006 hPa)
ob: EHVL 200055Z AUTO 01018KT 0800 FG VV000 11/11 Q1006 REDZ AMB
cycle: 1
VOLKEL:
Volkel, Netherlands (EHVK) 51-39N 005-42E 21M
May 19, 2019 - 08:55 PM EDT / 2019.05.20 0055 UTC
Wind: from the WNW (290 degrees) at 3 MPH (3 KT) (direction variable):0
Visibility: 2 mile(s):0
Sky conditions: mostly cloudy
Weather: mist
Temperature: 55 F (13 C)
Dew Point: 53 F (12 C)
Relative Humidity: 93%
Pressure (altimeter): 29.71 in. Hg (1006 hPa)
ob: EHVK 200055Z AUTO 29003KT 250V330 4300 BR FEW005 SCT008 BKN010 13/12 Q1006 GRN
cycle: 1
WOENSDRECHT:
Woensdrecht, Netherlands (EHWO) 51-27N 004-20E 17M
May 19, 2019 - 08:55 PM EDT / 2019.05.20 0055 UTC
Wind: from the NW (310 degrees) at 3 MPH (3 KT) (direction variable):0
Visibility: 1 mile(s):0
Sky conditions: mostly cloudy
Weather: drizzle
Temperature: 51 F (11 C)
Dew Point: 51 F (11 C)
Relative Humidity: 100%
Pressure (altimeter): 29.74 in. Hg (1007 hPa)
ob: EHWO 200055Z AUTO 31003KT 240V340 1800 DZ FEW001 BKN003 BKN004 11/11 Q1007 YLO
cycle: 1
Copyright © 2005 - 2019 Venhuizerweer - Alle Rechten Voorbehouden


3.85.143.239